GOOD

Diourbel Airport

Diourbel, Senegal
METAR GOOD 250000Z 36002KT 8000 NSC 23/18 Q1012
Observed Flight Rules
May-25 @ 00:00 UTC (an hour ago) Marginal Visual Flight Rules
Wind Visibility Clouds
360° at 2 knots 7,998 meters
  • Clear skies
Temperatures Readings
Current 23°C / 73°F
Dewpoint 18°C / 64°F
Humidity 74%
Altimeter 29.88" Hg
Pressure 1012 hPa
Elevation 9
METAR GOOD 250000Z 36002KT 8000 NSC 23/18 Q1012
Observed Flight Rules
May-25 @ 00:00 UTC
(an hour ago)
MVFR
Wind Visibility
360° at 2 knots 7,998 meters
Clouds
  • Clear skies
Temperature Dewpoint
23°C / 73°F 18°C / 64°F
Humidity Altimeter Pressure
74% 29.88" Hg 1012 hPa